Terminal Aerodrome Forecast
Issued by NWS Cleveland, OH

Home | Current Version | Previous Version | Graphics & Text | Print | Product List | Glossary On
Versions: 1 2 3 4 5 6 7 8 9 10 11 12 13 14 15 16 17 18 19 20 21 22 23 24 25 26
000
FTUS41 KCLE 240259 AAA
TAFCLE
TAF AMD
KCLE 240259Z 2403/2506 06004KT P6SM BKN250
     FM241000 VRB03KT 6SM BR BKN250
     FM241300 21007KT P6SM SCT100 BKN250
     FM241800 23007KT P6SM SCT050 BKN250
     FM250000 VRB03KT P6SM OVC250=

USA.gov is the U.S. government's official web portal to all federal, state and local government web resources and services.